createdAt,value
2022-11-30T00:00:58.491Z,43.33
2022-11-30T00:03:28.659Z,43.07
2022-11-30T00:05:57.945Z,45.23
2022-11-30T00:08:29.139Z,43.23
2022-11-30T00:10:56.743Z,44.40
2022-11-30T00:13:24.628Z,42.67
2022-11-30T00:15:53.230Z,43.00
2022-11-30T00:18:20.905Z,45.50
2022-11-30T00:20:49.042Z,44.43
2022-11-30T00:23:18.058Z,41.50
2022-11-30T00:25:45.726Z,45.27
2022-11-30T00:28:13.679Z,43.17
2022-11-30T00:30:41.383Z,43.40
2022-11-30T00:33:09.283Z,46.93
2022-11-30T00:35:37.199Z,44.00
2022-11-30T00:38:05.023Z,44.73
2022-11-30T00:40:34.131Z,44.03
2022-11-30T00:43:01.904Z,44.30
2022-11-30T00:45:29.546Z,45.47
2022-11-30T00:47:57.220Z,43.40
2022-11-30T00:50:25.210Z,44.83
2022-11-30T00:52:52.819Z,43.60
2022-11-30T00:55:20.659Z,45.23
2022-11-30T00:57:51.489Z,45.53
2022-11-30T01:00:19.559Z,45.87
2022-11-30T01:02:47.188Z,43.93
2022-11-30T01:05:15.066Z,44.30
2022-11-30T01:07:42.677Z,43.30
2022-11-30T01:10:11.302Z,44.27
2022-11-30T01:12:39.188Z,45.90
2022-11-30T01:15:08.942Z,44.23
2022-11-30T01:17:36.693Z,42.07
2022-11-30T01:20:04.636Z,48.50
2022-11-30T01:22:32.284Z,42.20
2022-11-30T01:25:00.904Z,45.27
2022-11-30T01:27:28.991Z,45.00
2022-11-30T01:29:57.470Z,45.93
2022-11-30T01:32:26.508Z,44.60
2022-11-30T01:34:54.633Z,44.30
2022-11-30T01:37:23.000Z,46.47
2022-11-30T01:39:50.810Z,45.50
2022-11-30T01:42:21.493Z,44.60
2022-11-30T01:44:51.863Z,44.23
2022-11-30T01:47:21.542Z,46.60
2022-11-30T01:49:54.726Z,46.33
2022-11-30T01:52:25.908Z,46.00
2022-11-30T01:54:56.173Z,43.70
2022-11-30T01:57:28.211Z,46.50
2022-11-30T01:59:58.043Z,45.60
2022-11-30T02:02:30.080Z,44.97
2022-11-30T02:04:59.717Z,44.40
2022-11-30T02:07:28.172Z,44.30
2022-11-30T02:09:56.159Z,46.00
2022-11-30T02:12:28.664Z,46.93
2022-11-30T02:14:59.883Z,44.70
2022-11-30T02:17:29.689Z,44.40
2022-11-30T02:20:21.172Z,42.57
2022-11-30T02:22:59.812Z,44.83
2022-11-30T02:25:31.337Z,44.73
2022-11-30T02:28:09.424Z,45.50
2022-11-30T02:30:41.930Z,42.90
2022-11-30T02:33:11.333Z,43.27
2022-11-30T02:35:40.803Z,43.53
2022-11-30T02:38:09.035Z,45.10
2022-11-30T02:40:37.655Z,46.90
2022-11-30T02:43:07.101Z,43.67
2022-11-30T02:45:38.277Z,43.63
2022-11-30T02:48:08.906Z,44.47
2022-11-30T02:50:38.696Z,44.73
2022-11-30T02:53:06.993Z,45.50
2022-11-30T02:55:34.806Z,44.83
2022-11-30T02:58:02.744Z,45.50
2022-11-30T03:00:30.420Z,44.47
2022-11-30T03:02:58.316Z,43.17
2022-11-30T03:05:27.402Z,44.20
2022-11-30T03:07:55.098Z,42.77
2022-11-30T03:10:22.809Z,44.43
2022-11-30T03:12:50.499Z,43.80
2022-11-30T03:15:18.495Z,44.20
2022-11-30T03:17:46.436Z,43.40
2022-11-30T03:20:14.113Z,45.33
2022-11-30T03:22:43.308Z,43.90
2022-11-30T03:25:11.151Z,43.43
2022-11-30T03:27:38.910Z,44.20
2022-11-30T03:30:07.338Z,43.10
2022-11-30T03:32:34.956Z,41.40
2022-11-30T03:35:08.309Z,43.90
2022-11-30T03:37:35.962Z,44.67
2022-11-30T03:40:05.336Z,43.10
2022-11-30T03:42:33.398Z,45.17
2022-11-30T03:45:01.021Z,44.83
2022-11-30T03:47:28.925Z,45.00
2022-11-30T03:49:56.890Z,44.03
2022-11-30T03:52:24.594Z,41.07
2022-11-30T03:54:52.236Z,43.50
2022-11-30T03:57:21.508Z,42.13
2022-11-30T03:59:49.109Z,43.90
2022-11-30T04:02:16.714Z,42.80
2022-11-30T04:04:44.760Z,42.40
2022-11-30T04:07:12.547Z,44.03
2022-11-30T04:09:40.904Z,43.70
2022-11-30T04:12:09.099Z,43.57
2022-11-30T04:14:38.225Z,42.90
2022-11-30T04:17:06.032Z,44.90
2022-11-30T04:19:33.707Z,44.13
2022-11-30T04:22:01.504Z,43.77
2022-11-30T04:24:29.333Z,45.10
2022-11-30T04:26:57.094Z,44.30
2022-11-30T04:29:24.834Z,43.37
2022-11-30T04:31:54.011Z,45.77
2022-11-30T04:34:21.844Z,44.50
2022-11-30T04:36:49.697Z,43.13
2022-11-30T04:39:17.577Z,44.10
2022-11-30T04:41:45.307Z,44.33
2022-11-30T04:44:12.936Z,43.33
2022-11-30T04:46:40.834Z,46.17
2022-11-30T04:49:09.860Z,45.60
2022-11-30T04:51:37.540Z,44.87
2022-11-30T04:54:06.006Z,46.73
2022-11-30T04:56:33.817Z,44.77
2022-11-30T04:59:01.962Z,44.37
2022-11-30T05:01:30.082Z,44.67
2022-11-30T05:04:00.074Z,44.97
2022-11-30T05:06:29.921Z,46.40
2022-11-30T05:08:57.873Z,43.73
2022-11-30T05:11:25.594Z,44.17
2022-11-30T05:13:53.224Z,45.53
2022-11-30T05:16:21.128Z,44.63
2022-11-30T05:18:48.891Z,45.23
2022-11-30T05:21:17.833Z,44.00
2022-11-30T05:23:48.730Z,43.17
2022-11-30T05:26:16.654Z,42.73
2022-11-30T05:28:44.272Z,42.53
2022-11-30T05:31:12.244Z,43.50
2022-11-30T05:33:39.923Z,43.50
2022-11-30T05:36:10.962Z,45.57
2022-11-30T05:38:39.209Z,43.40
2022-11-30T05:41:08.157Z,43.17
2022-11-30T05:43:36.175Z,44.30
2022-11-30T05:46:04.284Z,43.83
2022-11-30T05:48:31.956Z,43.57
2022-11-30T05:51:05.396Z,45.60
2022-11-30T05:53:33.830Z,44.30
2022-11-30T05:56:02.585Z,45.10
2022-11-30T05:58:31.764Z,45.23
2022-11-30T06:00:59.933Z,43.57
2022-11-30T06:03:29.244Z,44.90
2022-11-30T06:05:57.126Z,44.37
2022-11-30T06:08:25.442Z,43.97
2022-11-30T06:10:53.430Z,42.23
2022-11-30T06:13:25.976Z,42.50
2022-11-30T06:16:01.886Z,42.50
2022-11-30T06:18:29.932Z,43.63
2022-11-30T06:21:00.449Z,43.43
2022-11-30T06:23:28.546Z,43.10
2022-11-30T06:25:56.205Z,45.37
2022-11-30T06:28:24.901Z,43.73
2022-11-30T06:30:52.589Z,43.97
2022-11-30T06:33:24.412Z,46.63
2022-11-30T06:35:52.918Z,44.80
2022-11-30T06:38:20.704Z,45.53
2022-11-30T06:40:48.648Z,45.60
2022-11-30T06:43:16.558Z,43.17
2022-11-30T06:45:44.974Z,43.43
2022-11-30T06:48:12.969Z,42.10
2022-11-30T06:50:46.849Z,44.60
2022-11-30T06:53:17.719Z,44.47
2022-11-30T06:55:45.474Z,44.63
2022-11-30T06:58:13.327Z,42.90
2022-11-30T07:00:40.981Z,42.20
2022-11-30T07:03:08.889Z,44.13
2022-11-30T07:05:40.640Z,41.07
2022-11-30T07:08:10.140Z,42.50
2022-11-30T07:10:40.407Z,41.37
2022-11-30T07:13:11.227Z,43.03
2022-11-30T07:15:39.190Z,42.70
2022-11-30T07:18:06.894Z,42.40
2022-11-30T07:20:36.644Z,43.00
2022-11-30T07:23:18.495Z,43.10
2022-11-30T07:26:05.575Z,41.50
2022-11-30T07:28:33.306Z,41.57
2022-11-30T07:31:00.875Z,41.97
2022-11-30T07:33:28.774Z,42.93
2022-11-30T07:35:56.529Z,41.60
2022-11-30T07:38:24.334Z,40.90
2022-11-30T07:40:53.531Z,42.87
2022-11-30T07:43:21.421Z,41.87
2022-11-30T07:45:53.004Z,42.40
2022-11-30T07:48:20.930Z,42.53
2022-11-30T07:50:48.621Z,42.37
2022-11-30T07:53:16.936Z,43.57
2022-11-30T07:55:44.814Z,41.97
2022-11-30T07:58:17.303Z,41.27
2022-11-30T08:00:45.473Z,42.03
2022-11-30T08:03:13.146Z,40.73
2022-11-30T08:05:40.878Z,40.73
2022-11-30T08:08:08.774Z,41.60
2022-11-30T08:10:36.555Z,42.30
2022-11-30T08:13:04.263Z,40.87
2022-11-30T08:15:34.120Z,41.80
2022-11-30T08:18:05.488Z,43.13
2022-11-30T08:20:33.784Z,42.17
2022-11-30T08:23:01.488Z,41.40
2022-11-30T08:25:30.686Z,41.67
2022-11-30T08:27:58.583Z,40.77
2022-11-30T08:30:27.946Z,40.53
2022-11-30T08:33:01.954Z,40.20
2022-11-30T08:35:29.559Z,41.00
2022-11-30T08:37:57.503Z,42.10
2022-11-30T08:40:25.393Z,39.77
2022-11-30T08:42:53.254Z,39.00
2022-11-30T08:45:20.826Z,41.63
2022-11-30T08:47:48.784Z,41.87
2022-11-30T08:50:17.874Z,39.80
2022-11-30T08:52:45.633Z,40.20
2022-11-30T08:55:13.489Z,40.07
2022-11-30T08:57:41.516Z,38.77
2022-11-30T09:00:10.072Z,38.93
2022-11-30T09:02:38.076Z,39.20
2022-11-30T09:05:06.289Z,39.60
2022-11-30T09:07:35.413Z,40.57
2022-11-30T09:10:03.481Z,40.83
2022-11-30T09:12:31.312Z,39.20
2022-11-30T09:14:59.322Z,39.10
2022-11-30T09:17:27.478Z,38.00
2022-11-30T09:19:55.875Z,38.90
2022-11-30T09:22:23.845Z,37.07
2022-11-30T09:24:55.746Z,38.60
2022-11-30T09:27:23.545Z,38.87
2022-11-30T09:29:51.114Z,39.10
2022-11-30T09:32:19.078Z,38.60
2022-11-30T09:34:46.821Z,39.40
2022-11-30T09:37:14.869Z,37.90
2022-11-30T09:39:42.609Z,38.23
2022-11-30T09:42:18.666Z,37.50
2022-11-30T09:44:51.137Z,38.00
2022-11-30T09:47:35.034Z,37.70
2022-11-30T09:50:04.163Z,37.43
2022-11-30T09:52:34.709Z,39.17
2022-11-30T09:55:06.470Z,37.63
2022-11-30T09:57:39.475Z,38.10
2022-11-30T10:00:12.423Z,39.17
2022-11-30T10:02:40.966Z,40.17
2022-11-30T10:05:13.540Z,40.17
2022-11-30T10:07:48.934Z,40.47
2022-11-30T10:10:34.809Z,40.97
2022-11-30T10:13:10.078Z,39.97
2022-11-30T10:15:45.311Z,40.10
2022-11-30T10:18:16.827Z,42.03
2022-11-30T10:20:52.856Z,41.93
2022-11-30T10:23:43.314Z,41.53
2022-11-30T10:26:13.058Z,42.53
2022-11-30T10:28:47.794Z,41.10
2022-11-30T10:31:17.349Z,39.70
2022-11-30T10:33:47.080Z,40.63
2022-11-30T10:36:16.593Z,39.40
2022-11-30T10:38:46.026Z,42.53
2022-11-30T10:41:16.752Z,40.77
2022-11-30T10:43:46.926Z,40.40
2022-11-30T10:46:19.041Z,41.20
2022-11-30T10:48:49.920Z,38.23
2022-11-30T10:51:18.131Z,41.03
2022-11-30T10:53:45.750Z,42.03
2022-11-30T10:56:14.748Z,40.43
2022-11-30T10:58:48.154Z,39.83
2022-11-30T11:01:32.086Z,41.50
2022-11-30T11:04:10.901Z,40.17
2022-11-30T11:06:42.250Z,41.63
2022-11-30T11:09:33.071Z,38.30
2022-11-30T11:12:02.110Z,39.30
2022-11-30T11:14:34.887Z,39.50
2022-11-30T11:17:07.617Z,39.40
2022-11-30T11:19:37.291Z,39.03
2022-11-30T11:22:06.661Z,39.67
2022-11-30T11:24:35.017Z,39.30
2022-11-30T11:27:02.788Z,41.00
2022-11-30T11:29:33.591Z,41.20
2022-11-30T11:32:22.156Z,41.00
2022-11-30T11:34:51.533Z,41.07
2022-11-30T11:37:24.697Z,40.47
2022-11-30T11:40:03.119Z,41.33
2022-11-30T11:42:32.640Z,41.60
2022-11-30T11:45:01.444Z,42.70
2022-11-30T11:47:38.737Z,43.53
2022-11-30T11:50:08.738Z,41.33
2022-11-30T11:52:36.953Z,42.10
2022-11-30T11:55:06.232Z,42.47
2022-11-30T11:57:38.802Z,40.53
2022-11-30T12:00:15.839Z,44.57
2022-11-30T12:02:50.654Z,43.53
2022-11-30T12:05:20.167Z,41.30
2022-11-30T12:07:51.397Z,42.80
2022-11-30T12:10:51.138Z,44.07
2022-11-30T12:13:15.166Z,43.07
2022-11-30T12:15:50.589Z,43.70
2022-11-30T12:18:24.219Z,45.10
2022-11-30T12:20:59.291Z,43.37
2022-11-30T12:23:39.547Z,45.37
2022-11-30T12:26:12.538Z,42.63
2022-11-30T12:28:44.571Z,46.87
2022-11-30T12:31:14.381Z,47.10
2022-11-30T12:33:51.183Z,46.93
2022-11-30T12:36:21.449Z,46.97
2022-11-30T12:38:50.275Z,46.00
2022-11-30T12:41:30.704Z,45.70
2022-11-30T12:44:01.398Z,47.37
2022-11-30T12:46:35.749Z,44.40
2022-11-30T12:49:13.397Z,48.40
2022-11-30T12:51:43.957Z,46.30
2022-11-30T12:54:17.271Z,47.87
2022-11-30T12:56:47.942Z,48.23
2022-11-30T12:59:19.575Z,48.50
2022-11-30T13:01:52.740Z,49.43
2022-11-30T13:04:25.333Z,47.03
2022-11-30T13:06:55.234Z,48.00
2022-11-30T13:09:26.089Z,46.60
2022-11-30T13:11:57.203Z,47.13
2022-11-30T13:14:26.053Z,44.50
2022-11-30T13:16:57.612Z,46.87
2022-11-30T13:19:31.433Z,45.60
2022-11-30T13:22:01.313Z,45.53
2022-11-30T13:24:33.057Z,45.60
2022-11-30T13:27:02.844Z,46.60
2022-11-30T13:29:50.459Z,44.90
2022-11-30T13:32:55.472Z,44.93
2022-11-30T13:35:25.447Z,46.03
2022-11-30T13:38:34.610Z,47.57
2022-11-30T13:40:56.101Z,46.70
2022-11-30T13:43:24.743Z,46.37
2022-11-30T13:46:02.755Z,47.27
2022-11-30T13:48:33.670Z,47.90
2022-11-30T13:51:01.919Z,48.57
2022-11-30T13:53:34.163Z,44.83
2022-11-30T13:56:03.377Z,46.67
2022-11-30T13:58:31.452Z,49.93
2022-11-30T14:01:20.673Z,47.80
2022-11-30T14:04:03.164Z,48.30
2022-11-30T14:06:48.164Z,47.63
2022-11-30T14:09:17.866Z,48.70
2022-11-30T14:11:46.106Z,48.43
2022-11-30T14:14:32.669Z,50.20
2022-11-30T14:17:00.447Z,52.43
2022-11-30T14:19:29.716Z,51.10
2022-11-30T14:21:58.371Z,49.27
2022-11-30T14:24:27.350Z,50.60
2022-11-30T14:26:57.141Z,50.10
2022-11-30T14:29:28.935Z,50.00
2022-11-30T14:31:59.236Z,50.33
2022-11-30T14:34:28.323Z,50.47
2022-11-30T14:36:57.813Z,51.33
2022-11-30T14:39:28.842Z,49.23
2022-11-30T14:41:56.710Z,53.20
2022-11-30T14:44:24.311Z,52.90
2022-11-30T14:46:52.192Z,52.70
2022-11-30T14:49:20.951Z,51.83
2022-11-30T14:51:50.221Z,54.90
2022-11-30T14:54:23.581Z,53.33
2022-11-30T14:56:53.897Z,55.60
2022-11-30T14:59:27.483Z,53.83
2022-11-30T15:01:59.176Z,55.60
2022-11-30T15:04:28.630Z,53.17
2022-11-30T15:06:56.553Z,56.07
2022-11-30T15:09:27.229Z,54.77
2022-11-30T15:11:57.086Z,55.53
2022-11-30T15:14:25.406Z,53.10
2022-11-30T15:16:54.715Z,53.17
2022-11-30T15:19:23.727Z,56.87
2022-11-30T15:21:52.071Z,54.90
2022-11-30T15:24:20.307Z,55.40
2022-11-30T15:26:54.388Z,51.93
2022-11-30T15:29:26.575Z,52.63
2022-11-30T15:31:55.965Z,51.50
2022-11-30T15:34:28.042Z,51.30
2022-11-30T15:36:56.861Z,50.60
2022-11-30T15:39:25.437Z,48.97
2022-11-30T15:41:54.774Z,50.90
2022-11-30T15:44:25.915Z,48.27
2022-11-30T15:46:57.962Z,50.03
2022-11-30T15:49:27.566Z,50.93
2022-11-30T15:52:04.571Z,50.53
2022-11-30T15:54:46.061Z,47.60
2022-11-30T15:57:13.871Z,50.10
2022-11-30T15:59:43.085Z,52.37
2022-11-30T16:02:27.894Z,50.27
2022-11-30T16:05:10.906Z,51.30
2022-11-30T16:07:49.506Z,50.77
2022-11-30T16:10:19.546Z,52.60
2022-11-30T16:12:49.329Z,50.50
2022-11-30T16:15:19.349Z,49.50
2022-11-30T16:17:47.004Z,53.03
2022-11-30T16:20:15.418Z,49.53
2022-11-30T16:22:44.589Z,50.23
2022-11-30T16:25:14.630Z,49.60
2022-11-30T16:27:42.803Z,50.67
2022-11-30T16:30:11.040Z,46.57
2022-11-30T16:32:40.433Z,49.37
2022-11-30T16:35:16.566Z,47.13
2022-11-30T16:37:44.814Z,47.80
2022-11-30T16:40:13.422Z,48.07
2022-11-30T16:42:41.699Z,47.57
2022-11-30T16:45:13.496Z,49.03
2022-11-30T16:47:43.314Z,48.30
2022-11-30T16:50:12.055Z,47.67
2022-11-30T16:52:39.786Z,45.30
2022-11-30T16:55:12.512Z,45.47
2022-11-30T16:57:40.322Z,46.20
2022-11-30T17:00:09.024Z,46.10
2022-11-30T17:02:39.397Z,46.10
2022-11-30T17:05:09.336Z,46.27
2022-11-30T17:07:37.731Z,46.33
2022-11-30T17:10:06.010Z,45.70
2022-11-30T17:12:35.282Z,45.83
2022-11-30T17:15:03.084Z,47.27
2022-11-30T17:17:30.874Z,48.80
2022-11-30T17:19:58.505Z,49.00
2022-11-30T17:22:27.740Z,47.20
2022-11-30T17:24:55.673Z,48.53
2022-11-30T17:27:23.266Z,50.00
2022-11-30T17:29:50.834Z,47.37
2022-11-30T17:32:18.969Z,48.20
2022-11-30T17:34:48.080Z,49.90
2022-11-30T17:37:16.082Z,47.87
2022-11-30T17:39:45.053Z,45.93
2022-11-30T17:42:12.867Z,46.90
2022-11-30T17:44:40.586Z,46.30
2022-11-30T17:47:08.625Z,46.07
2022-11-30T17:49:36.575Z,46.87
2022-11-30T17:52:06.274Z,48.73
2022-11-30T17:54:33.949Z,47.23
2022-11-30T17:57:02.955Z,47.40
2022-11-30T17:59:30.708Z,46.40
2022-11-30T18:01:58.488Z,46.00
2022-11-30T18:04:29.119Z,47.70
2022-11-30T18:06:57.222Z,47.60
2022-11-30T18:09:24.917Z,46.40
2022-11-30T18:11:52.829Z,47.93
2022-11-30T18:14:21.849Z,45.10
2022-11-30T18:16:49.686Z,45.20
2022-11-30T18:19:17.925Z,46.67
2022-11-30T18:21:45.573Z,45.30
2022-11-30T18:24:13.421Z,45.50
2022-11-30T18:26:41.625Z,43.07
2022-11-30T18:29:10.853Z,42.10
2022-11-30T18:31:39.944Z,43.73
2022-11-30T18:34:08.852Z,43.00
2022-11-30T18:36:36.511Z,42.03
2022-11-30T18:39:04.614Z,45.33
2022-11-30T18:41:32.344Z,42.50
2022-11-30T18:44:00.082Z,43.10
2022-11-30T18:46:28.006Z,43.30
2022-11-30T18:48:59.053Z,43.87
2022-11-30T18:51:27.767Z,43.60
2022-11-30T18:53:57.541Z,43.93
2022-11-30T18:56:26.324Z,41.93
2022-11-30T18:58:56.055Z,38.70
2022-11-30T19:01:24.048Z,42.57
2022-11-30T19:03:52.491Z,42.23
2022-11-30T19:06:21.669Z,42.73
2022-11-30T19:08:49.804Z,41.00
2022-11-30T19:11:18.313Z,40.67
2022-11-30T19:13:46.329Z,40.60
2022-11-30T19:16:14.983Z,41.30
2022-11-30T19:18:46.624Z,41.90
2022-11-30T19:21:15.387Z,43.10
2022-11-30T19:23:44.573Z,44.07
2022-11-30T19:26:13.713Z,43.43
2022-11-30T19:28:42.631Z,45.53
2022-11-30T19:31:11.454Z,44.40
2022-11-30T19:33:39.742Z,42.23
2022-11-30T19:36:08.932Z,42.60
2022-11-30T19:38:36.652Z,43.20
2022-11-30T19:41:09.745Z,42.90
2022-11-30T19:43:37.453Z,40.30
2022-11-30T19:46:06.499Z,41.00
2022-11-30T19:48:34.706Z,42.57
2022-11-30T19:51:05.202Z,44.57
2022-11-30T19:53:33.470Z,45.27
2022-11-30T19:56:04.709Z,45.20
2022-11-30T19:58:34.137Z,44.30
2022-11-30T20:01:02.403Z,46.17
2022-11-30T20:03:30.262Z,45.93
2022-11-30T20:05:57.882Z,45.43
2022-11-30T20:08:25.677Z,43.67
2022-11-30T20:10:53.794Z,44.67
2022-11-30T20:13:21.525Z,46.30
2022-11-30T20:15:50.680Z,46.03
2022-11-30T20:18:19.209Z,45.40
2022-11-30T20:20:46.837Z,45.80
2022-11-30T20:23:14.561Z,45.00
2022-11-30T20:25:42.452Z,44.20
2022-11-30T20:28:12.674Z,43.20
2022-11-30T20:30:40.910Z,42.60
2022-11-30T20:33:10.003Z,41.27
2022-11-30T20:35:37.755Z,42.50
2022-11-30T20:38:05.528Z,41.67
2022-11-30T20:40:33.509Z,42.20
2022-11-30T20:43:01.176Z,41.40
2022-11-30T20:45:28.866Z,42.60
2022-11-30T20:47:56.707Z,40.57
2022-11-30T20:50:25.760Z,41.73
2022-11-30T20:52:53.848Z,42.37
2022-11-30T20:55:21.955Z,44.43
2022-11-30T20:57:49.729Z,40.67
2022-11-30T21:00:18.220Z,43.67
2022-11-30T21:02:46.074Z,43.20
2022-11-30T21:05:13.712Z,42.73
2022-11-30T21:07:43.231Z,44.40
2022-11-30T21:10:11.926Z,43.80
2022-11-30T21:12:39.508Z,43.00
2022-11-30T21:15:07.940Z,42.90
2022-11-30T21:17:35.789Z,42.93
2022-11-30T21:20:03.933Z,42.10
2022-11-30T21:22:31.649Z,43.70
2022-11-30T21:25:00.870Z,43.07
2022-11-30T21:27:28.605Z,44.30
2022-11-30T21:29:56.252Z,43.40
2022-11-30T21:32:24.185Z,43.90
2022-11-30T21:34:51.929Z,45.20
2022-11-30T21:37:19.588Z,44.77
2022-11-30T21:39:47.887Z,45.10
2022-11-30T21:42:16.879Z,46.53
2022-11-30T21:44:44.768Z,44.07
2022-11-30T21:47:14.513Z,44.30
2022-11-30T21:49:42.180Z,47.90
2022-11-30T21:52:10.843Z,46.93
2022-11-30T21:54:38.622Z,46.00
2022-11-30T21:57:06.660Z,43.63
2022-11-30T21:59:36.152Z,45.07
2022-11-30T22:02:04.335Z,44.30
2022-11-30T22:04:32.038Z,44.30
2022-11-30T22:07:00.123Z,42.80
2022-11-30T22:09:27.822Z,43.60
2022-11-30T22:11:56.495Z,44.57
2022-11-30T22:14:25.050Z,42.90
2022-11-30T22:16:54.219Z,44.67
2022-11-30T22:19:22.089Z,44.10
2022-11-30T22:21:50.646Z,43.00
2022-11-30T22:24:18.295Z,41.90
2022-11-30T22:26:46.456Z,42.97
2022-11-30T22:29:15.589Z,40.23
2022-11-30T22:31:44.351Z,43.07
2022-11-30T22:34:13.651Z,43.00
2022-11-30T22:36:42.382Z,44.70
2022-11-30T22:39:12.752Z,44.27
2022-11-30T22:41:40.828Z,43.23
2022-11-30T22:44:08.793Z,44.43
2022-11-30T22:46:37.734Z,42.90
2022-11-30T22:49:06.248Z,44.00
2022-11-30T22:51:35.976Z,44.37
2022-11-30T22:54:04.389Z,46.27
2022-11-30T22:56:33.647Z,42.77
2022-11-30T22:59:01.751Z,45.67
2022-11-30T23:01:30.289Z,44.10
2022-11-30T23:04:01.500Z,45.80
2022-11-30T23:06:29.949Z,43.97
2022-11-30T23:08:59.440Z,43.00
2022-11-30T23:11:31.313Z,43.20
2022-11-30T23:13:59.138Z,44.40
2022-11-30T23:16:26.868Z,43.90
2022-11-30T23:18:56.016Z,44.40
2022-11-30T23:21:24.335Z,46.30
2022-11-30T23:23:52.341Z,46.37
2022-11-30T23:26:22.289Z,45.80
2022-11-30T23:28:50.925Z,45.77
2022-11-30T23:31:34.516Z,44.80
2022-11-30T23:34:05.184Z,46.70
2022-11-30T23:36:32.945Z,47.87
2022-11-30T23:39:01.829Z,45.73
2022-11-30T23:41:31.294Z,42.50
2022-11-30T23:43:58.934Z,44.80
2022-11-30T23:46:26.869Z,42.77
2022-11-30T23:48:55.846Z,41.10
2022-11-30T23:51:23.815Z,44.90
2022-11-30T23:53:51.548Z,42.43
2022-11-30T23:56:20.176Z,41.17
2022-11-30T23:58:49.581Z,39.80
